sensor_id;sensor_type;location;lat;lon;timestamp;P1;durP1;ratioP1;P2;durP2;ratioP2
19919;SDS011;10122;50.074;19.920;2024-03-17T00:01:37;15.80;;;13.07;;
19919;SDS011;10122;50.074;19.920;2024-03-17T00:04:03;15.38;;;12.82;;
19919;SDS011;10122;50.074;19.920;2024-03-17T00:06:29;16.45;;;14.00;;
19919;SDS011;10122;50.074;19.920;2024-03-17T00:08:56;14.27;;;12.55;;
19919;SDS011;10122;50.074;19.920;2024-03-17T00:11:22;14.82;;;12.65;;
19919;SDS011;10122;50.074;19.920;2024-03-17T00:13:47;17.35;;;12.82;;
19919;SDS011;10122;50.074;19.920;2024-03-17T00:16:13;19.35;;;13.32;;
19919;SDS011;10122;50.074;19.920;2024-03-17T00:18:42;14.63;;;12.93;;
19919;SDS011;10122;50.074;19.920;2024-03-17T00:21:07;15.18;;;12.60;;
19919;SDS011;10122;50.074;19.920;2024-03-17T00:23:33;16.30;;;12.55;;
19919;SDS011;10122;50.074;19.920;2024-03-17T00:25:59;15.73;;;13.02;;
19919;SDS011;10122;50.074;19.920;2024-03-17T00:28:25;16.20;;;13.48;;
19919;SDS011;10122;50.074;19.920;2024-03-17T00:30:51;15.23;;;13.65;;
19919;SDS011;10122;50.074;19.920;2024-03-17T00:33:16;22.20;;;13.93;;
19919;SDS011;10122;50.074;19.920;2024-03-17T00:35:44;15.23;;;12.60;;
19919;SDS011;10122;50.074;19.920;2024-03-17T00:38:10;10.82;;;9.82;;
19919;SDS011;10122;50.074;19.920;2024-03-17T00:40:38;11.85;;;10.75;;
19919;SDS011;10122;50.074;19.920;2024-03-17T00:43:09;9.98;;;9.05;;
19919;SDS011;10122;50.074;19.920;2024-03-17T00:45:36;10.25;;;8.93;;
19919;SDS011;10122;50.074;19.920;2024-03-17T00:48:02;9.35;;;8.55;;
19919;SDS011;10122;50.074;19.920;2024-03-17T00:50:28;8.23;;;7.70;;
19919;SDS011;10122;50.074;19.920;2024-03-17T00:52:54;8.30;;;7.70;;
19919;SDS011;10122;50.074;19.920;2024-03-17T00:55:19;8.48;;;7.72;;
19919;SDS011;10122;50.074;19.920;2024-03-17T00:57:45;7.93;;;7.38;;
19919;SDS011;10122;50.074;19.920;2024-03-17T01:00:11;8.27;;;7.68;;
19919;SDS011;10122;50.074;19.920;2024-03-17T01:02:37;8.20;;;7.60;;
19919;SDS011;10122;50.074;19.920;2024-03-17T01:05:03;8.00;;;7.50;;
19919;SDS011;10122;50.074;19.920;2024-03-17T01:07:32;7.80;;;7.30;;
19919;SDS011;10122;50.074;19.920;2024-03-17T01:09:58;8.13;;;7.63;;
19919;SDS011;10122;50.074;19.920;2024-03-17T01:12:24;8.05;;;7.45;;
19919;SDS011;10122;50.074;19.920;2024-03-17T01:14:50;7.63;;;7.13;;
19919;SDS011;10122;50.074;19.920;2024-03-17T01:17:16;7.32;;;6.82;;
19919;SDS011;10122;50.074;19.920;2024-03-17T01:19:44;7.03;;;6.63;;
19919;SDS011;10122;50.074;19.920;2024-03-17T01:22:10;7.07;;;6.65;;
19919;SDS011;10122;50.074;19.920;2024-03-17T01:24:36;7.25;;;6.53;;
19919;SDS011;10122;50.074;19.920;2024-03-17T01:27:04;6.93;;;6.43;;
19919;SDS011;10122;50.074;19.920;2024-03-17T01:29:30;8.25;;;6.57;;
19919;SDS011;10122;50.074;19.920;2024-03-17T01:31:56;6.80;;;6.20;;
19919;SDS011;10122;50.074;19.920;2024-03-17T01:34:21;7.50;;;6.80;;
19919;SDS011;10122;50.074;19.920;2024-03-17T01:36:47;7.15;;;6.47;;
19919;SDS011;10122;50.074;19.920;2024-03-17T01:39:13;6.25;;;5.80;;
19919;SDS011;10122;50.074;19.920;2024-03-17T01:41:40;7.25;;;6.55;;
19919;SDS011;10122;50.074;19.920;2024-03-17T01:44:06;7.45;;;6.75;;
19919;SDS011;10122;50.074;19.920;2024-03-17T01:46:32;7.20;;;6.60;;
19919;SDS011;10122;50.074;19.920;2024-03-17T01:48:58;7.75;;;6.70;;
19919;SDS011;10122;50.074;19.920;2024-03-17T01:51:24;7.70;;;6.97;;
19919;SDS011;10122;50.074;19.920;2024-03-17T01:53:50;9.27;;;7.55;;
19919;SDS011;10122;50.074;19.920;2024-03-17T01:56:16;10.55;;;7.95;;
19919;SDS011;10122;50.074;19.920;2024-03-17T01:58:45;8.98;;;7.03;;
19919;SDS011;10122;50.074;19.920;2024-03-17T02:01:11;9.48;;;7.78;;
19919;SDS011;10122;50.074;19.920;2024-03-17T02:03:40;9.55;;;7.18;;
19919;SDS011;10122;50.074;19.920;2024-03-17T02:06:07;8.95;;;7.60;;
19919;SDS011;10122;50.074;19.920;2024-03-17T02:08:49;9.10;;;7.70;;
19919;SDS011;10122;50.074;19.920;2024-03-17T02:11:27;10.32;;;7.70;;
19919;SDS011;10122;50.074;19.920;2024-03-17T02:13:56;10.52;;;7.53;;
19919;SDS011;10122;50.074;19.920;2024-03-17T02:16:23;9.65;;;7.40;;
19919;SDS011;10122;50.074;19.920;2024-03-17T02:18:49;7.40;;;6.70;;
19919;SDS011;10122;50.074;19.920;2024-03-17T02:21:19;9.88;;;7.47;;
19919;SDS011;10122;50.074;19.920;2024-03-17T02:23:47;8.00;;;7.10;;
19919;SDS011;10122;50.074;19.920;2024-03-17T02:26:13;9.30;;;7.10;;
19919;SDS011;10122;50.074;19.920;2024-03-17T02:28:40;9.30;;;6.90;;
19919;SDS011;10122;50.074;19.920;2024-03-17T02:31:10;7.72;;;6.95;;
19919;SDS011;10122;50.074;19.920;2024-03-17T02:33:37;9.60;;;6.70;;
19919;SDS011;10122;50.074;19.920;2024-03-17T02:36:03;9.43;;;6.80;;
19919;SDS011;10122;50.074;19.920;2024-03-17T02:38:32;8.48;;;6.95;;
19919;SDS011;10122;50.074;19.920;2024-03-17T02:41:16;8.65;;;6.80;;
19919;SDS011;10122;50.074;19.920;2024-03-17T02:43:42;7.05;;;6.32;;
19919;SDS011;10122;50.074;19.920;2024-03-17T02:46:10;8.73;;;6.65;;
19919;SDS011;10122;50.074;19.920;2024-03-17T02:48:37;8.15;;;6.40;;
19919;SDS011;10122;50.074;19.920;2024-03-17T02:51:09;7.53;;;6.60;;
19919;SDS011;10122;50.074;19.920;2024-03-17T02:53:42;9.43;;;6.50;;
19919;SDS011;10122;50.074;19.920;2024-03-17T02:56:10;7.63;;;6.63;;
19919;SDS011;10122;50.074;19.920;2024-03-17T02:58:36;8.35;;;6.57;;
19919;SDS011;10122;50.074;19.920;2024-03-17T03:01:05;9.65;;;6.40;;
19919;SDS011;10122;50.074;19.920;2024-03-17T03:03:31;6.75;;;6.00;;
19919;SDS011;10122;50.074;19.920;2024-03-17T03:05:58;6.75;;;6.15;;
19919;SDS011;10122;50.074;19.920;2024-03-17T03:08:26;8.00;;;6.70;;
19919;SDS011;10122;50.074;19.920;2024-03-17T03:10:51;8.10;;;6.75;;
19919;SDS011;10122;50.074;19.920;2024-03-17T03:13:17;8.23;;;6.40;;
19919;SDS011;10122;50.074;19.920;2024-03-17T03:15:45;7.78;;;6.40;;
19919;SDS011;10122;50.074;19.920;2024-03-17T03:18:13;7.43;;;6.43;;
19919;SDS011;10122;50.074;19.920;2024-03-17T03:20:39;7.25;;;6.55;;
19919;SDS011;10122;50.074;19.920;2024-03-17T03:23:05;9.10;;;6.50;;
19919;SDS011;10122;50.074;19.920;2024-03-17T03:25:31;8.80;;;6.53;;
19919;SDS011;10122;50.074;19.920;2024-03-17T03:27:56;7.13;;;6.50;;
19919;SDS011;10122;50.074;19.920;2024-03-17T03:30:23;8.70;;;6.40;;
19919;SDS011;10122;50.074;19.920;2024-03-17T03:32:49;8.52;;;6.40;;
19919;SDS011;10122;50.074;19.920;2024-03-17T03:35:15;9.65;;;7.22;;
19919;SDS011;10122;50.074;19.920;2024-03-17T03:37:41;10.45;;;7.57;;
19919;SDS011;10122;50.074;19.920;2024-03-17T03:40:07;16.35;;;8.75;;
19919;SDS011;10122;50.074;19.920;2024-03-17T03:42:45;15.13;;;9.88;;
19919;SDS011;10122;50.074;19.920;2024-03-17T03:45:11;14.25;;;10.20;;
19919;SDS011;10122;50.074;19.920;2024-03-17T03:47:42;18.83;;;10.02;;
19919;SDS011;10122;50.074;19.920;2024-03-17T03:50:08;13.27;;;9.52;;
19919;SDS011;10122;50.074;19.920;2024-03-17T03:52:38;14.65;;;9.77;;
19919;SDS011;10122;50.074;19.920;2024-03-17T03:55:05;13.40;;;9.60;;
19919;SDS011;10122;50.074;19.920;2024-03-17T03:57:32;14.32;;;9.30;;
19919;SDS011;10122;50.074;19.920;2024-03-17T04:00:01;13.23;;;8.98;;
19919;SDS011;10122;50.074;19.920;2024-03-17T04:02:47;11.82;;;8.93;;
19919;SDS011;10122;50.074;19.920;2024-03-17T04:05:17;13.80;;;8.98;;
19919;SDS011;10122;50.074;19.920;2024-03-17T04:07:45;15.93;;;9.10;;
19919;SDS011;10122;50.074;19.920;2024-03-17T04:10:11;10.70;;;8.23;;
19919;SDS011;10122;50.074;19.920;2024-03-17T04:12:38;15.38;;;9.05;;
19919;SDS011;10122;50.074;19.920;2024-03-17T04:15:04;10.93;;;8.93;;
19919;SDS011;10122;50.074;19.920;2024-03-17T04:17:35;13.45;;;9.05;;
19919;SDS011;10122;50.074;19.920;2024-03-17T04:20:02;11.35;;;8.85;;
19919;SDS011;10122;50.074;19.920;2024-03-17T04:22:29;12.27;;;9.82;;
19919;SDS011;10122;50.074;19.920;2024-03-17T04:24:55;16.63;;;9.68;;
19919;SDS011;10122;50.074;19.920;2024-03-17T04:27:25;17.23;;;9.73;;
19919;SDS011;10122;50.074;19.920;2024-03-17T04:29:52;12.65;;;8.85;;
19919;SDS011;10122;50.074;19.920;2024-03-17T04:32:19;14.07;;;9.45;;
19919;SDS011;10122;50.074;19.920;2024-03-17T04:34:45;12.88;;;9.32;;
19919;SDS011;10122;50.074;19.920;2024-03-17T04:37:12;14.52;;;9.43;;
19919;SDS011;10122;50.074;19.920;2024-03-17T04:39:40;11.15;;;9.15;;
19919;SDS011;10122;50.074;19.920;2024-03-17T04:42:10;13.85;;;9.52;;
19919;SDS011;10122;50.074;19.920;2024-03-17T04:44:40;12.88;;;9.40;;
19919;SDS011;10122;50.074;19.920;2024-03-17T04:47:07;14.30;;;9.73;;
19919;SDS011;10122;50.074;19.920;2024-03-17T04:49:36;13.32;;;9.65;;
19919;SDS011;10122;50.074;19.920;2024-03-17T04:52:03;16.20;;;10.15;;
19919;SDS011;10122;50.074;19.920;2024-03-17T04:54:30;16.88;;;10.15;;
19919;SDS011;10122;50.074;19.920;2024-03-17T04:56:59;14.60;;;10.20;;
19919;SDS011;10122;50.074;19.920;2024-03-17T04:59:24;12.68;;;9.85;;
19919;SDS011;10122;50.074;19.920;2024-03-17T05:01:50;15.68;;;10.77;;
19919;SDS011;10122;50.074;19.920;2024-03-17T05:04:17;17.08;;;9.38;;
19919;SDS011;10122;50.074;19.920;2024-03-17T05:06:42;13.27;;;9.60;;
19919;SDS011;10122;50.074;19.920;2024-03-17T05:09:11;13.38;;;9.38;;
19919;SDS011;10122;50.074;19.920;2024-03-17T05:11:40;11.10;;;9.02;;
19919;SDS011;10122;50.074;19.920;2024-03-17T05:14:06;10.13;;;8.50;;
19919;SDS011;10122;50.074;19.920;2024-03-17T05:16:32;11.73;;;8.70;;
19919;SDS011;10122;50.074;19.920;2024-03-17T05:18:58;15.02;;;8.63;;
19919;SDS011;10122;50.074;19.920;2024-03-17T05:21:24;11.55;;;8.43;;
19919;SDS011;10122;50.074;19.920;2024-03-17T05:23:51;13.68;;;7.90;;
19919;SDS011;10122;50.074;19.920;2024-03-17T05:26:17;10.77;;;7.85;;
19919;SDS011;10122;50.074;19.920;2024-03-17T05:28:43;13.32;;;7.95;;
19919;SDS011;10122;50.074;19.920;2024-03-17T05:31:09;10.27;;;7.50;;
19919;SDS011;10122;50.074;19.920;2024-03-17T05:33:38;9.93;;;7.35;;
19919;SDS011;10122;50.074;19.920;2024-03-17T05:36:04;8.93;;;7.68;;
19919;SDS011;10122;50.074;19.920;2024-03-17T05:38:31;8.52;;;6.93;;
19919;SDS011;10122;50.074;19.920;2024-03-17T05:40:57;11.80;;;7.35;;
19919;SDS011;10122;50.074;19.920;2024-03-17T05:43:28;8.57;;;7.30;;
19919;SDS011;10122;50.074;19.920;2024-03-17T05:45:56;9.75;;;7.07;;
19919;SDS011;10122;50.074;19.920;2024-03-17T05:48:23;8.07;;;6.50;;
19919;SDS011;10122;50.074;19.920;2024-03-17T05:50:49;7.53;;;6.75;;
19919;SDS011;10122;50.074;19.920;2024-03-17T05:53:19;10.07;;;6.90;;
19919;SDS011;10122;50.074;19.920;2024-03-17T05:55:45;10.13;;;6.70;;
19919;SDS011;10122;50.074;19.920;2024-03-17T05:58:11;9.90;;;6.45;;
19919;SDS011;10122;50.074;19.920;2024-03-17T06:00:38;7.97;;;6.40;;
19919;SDS011;10122;50.074;19.920;2024-03-17T06:03:04;7.47;;;6.43;;
19919;SDS011;10122;50.074;19.920;2024-03-17T06:05:32;10.50;;;6.82;;
19919;SDS011;10122;50.074;19.920;2024-03-17T06:07:59;9.40;;;6.50;;
19919;SDS011;10122;50.074;19.920;2024-03-17T06:10:25;9.23;;;6.20;;
19919;SDS011;10122;50.074;19.920;2024-03-17T06:12:52;9.40;;;6.97;;
19919;SDS011;10122;50.074;19.920;2024-03-17T06:15:17;10.43;;;6.80;;
19919;SDS011;10122;50.074;19.920;2024-03-17T06:17:45;8.43;;;6.60;;
19919;SDS011;10122;50.074;19.920;2024-03-17T06:20:11;9.10;;;7.07;;
19919;SDS011;10122;50.074;19.920;2024-03-17T06:22:38;11.20;;;7.30;;
19919;SDS011;10122;50.074;19.920;2024-03-17T06:25:05;8.70;;;7.25;;
19919;SDS011;10122;50.074;19.920;2024-03-17T06:27:31;8.82;;;7.93;;
19919;SDS011;10122;50.074;19.920;2024-03-17T06:30:01;10.15;;;7.97;;
19919;SDS011;10122;50.074;19.920;2024-03-17T06:32:29;10.40;;;7.85;;
19919;SDS011;10122;50.074;19.920;2024-03-17T06:35:01;9.88;;;8.00;;
19919;SDS011;10122;50.074;19.920;2024-03-17T06:37:27;8.93;;;8.02;;
19919;SDS011;10122;50.074;19.920;2024-03-17T06:39:53;9.48;;;7.75;;
19919;SDS011;10122;50.074;19.920;2024-03-17T06:42:19;11.15;;;8.30;;
19919;SDS011;10122;50.074;19.920;2024-03-17T06:44:44;9.23;;;8.18;;
19919;SDS011;10122;50.074;19.920;2024-03-17T06:47:10;8.88;;;7.90;;
19919;SDS011;10122;50.074;19.920;2024-03-17T06:49:36;10.00;;;8.63;;
19919;SDS011;10122;50.074;19.920;2024-03-17T06:52:02;12.90;;;9.05;;
19919;SDS011;10122;50.074;19.920;2024-03-17T06:54:27;10.02;;;9.00;;
19919;SDS011;10122;50.074;19.920;2024-03-17T06:56:53;10.35;;;8.63;;
19919;SDS011;10122;50.074;19.920;2024-03-17T06:59:19;9.07;;;8.18;;
19919;SDS011;10122;50.074;19.920;2024-03-17T07:01:45;13.05;;;8.60;;
19919;SDS011;10122;50.074;19.920;2024-03-17T07:04:12;11.77;;;8.30;;
19919;SDS011;10122;50.074;19.920;2024-03-17T07:06:38;12.70;;;8.68;;
19919;SDS011;10122;50.074;19.920;2024-03-17T07:09:03;9.52;;;8.63;;
19919;SDS011;10122;50.074;19.920;2024-03-17T07:11:29;7.63;;;7.13;;
19919;SDS011;10122;50.074;19.920;2024-03-17T07:13:55;9.73;;;8.73;;
19919;SDS011;10122;50.074;19.920;2024-03-17T07:16:20;10.50;;;8.90;;
19919;SDS011;10122;50.074;19.920;2024-03-17T07:18:49;11.38;;;10.25;;
19919;SDS011;10122;50.074;19.920;2024-03-17T07:21:15;11.05;;;9.93;;
19919;SDS011;10122;50.074;19.920;2024-03-17T07:23:41;11.43;;;9.98;;
19919;SDS011;10122;50.074;19.920;2024-03-17T07:26:06;11.68;;;10.30;;
19919;SDS011;10122;50.074;19.920;2024-03-17T07:28:34;11.23;;;10.23;;
19919;SDS011;10122;50.074;19.920;2024-03-17T07:31:00;10.35;;;9.45;;
19919;SDS011;10122;50.074;19.920;2024-03-17T07:33:26;10.82;;;9.73;;
19919;SDS011;10122;50.074;19.920;2024-03-17T07:35:52;15.00;;;10.05;;
19919;SDS011;10122;50.074;19.920;2024-03-17T07:38:21;10.48;;;9.65;;
19919;SDS011;10122;50.074;19.920;2024-03-17T07:40:58;10.48;;;9.70;;
19919;SDS011;10122;50.074;19.920;2024-03-17T07:43:28;10.93;;;9.85;;
19919;SDS011;10122;50.074;19.920;2024-03-17T07:46:08;10.52;;;9.60;;
19919;SDS011;10122;50.074;19.920;2024-03-17T07:48:41;10.45;;;9.32;;
19919;SDS011;10122;50.074;19.920;2024-03-17T07:51:09;10.68;;;9.65;;
19919;SDS011;10122;50.074;19.920;2024-03-17T07:53:36;10.80;;;9.90;;
19919;SDS011;10122;50.074;19.920;2024-03-17T07:56:06;10.55;;;9.55;;
19919;SDS011;10122;50.074;19.920;2024-03-17T07:58:34;10.70;;;9.60;;
19919;SDS011;10122;50.074;19.920;2024-03-17T08:01:03;11.73;;;10.07;;
19919;SDS011;10122;50.074;19.920;2024-03-17T08:03:31;10.82;;;9.93;;
19919;SDS011;10122;50.074;19.920;2024-03-17T08:05:58;10.85;;;9.65;;
19919;SDS011;10122;50.074;19.920;2024-03-17T08:08:24;11.13;;;10.23;;
19919;SDS011;10122;50.074;19.920;2024-03-17T08:10:50;10.80;;;9.82;;
19919;SDS011;10122;50.074;19.920;2024-03-17T08:13:16;12.07;;;10.80;;
19919;SDS011;10122;50.074;19.920;2024-03-17T08:15:43;10.93;;;9.93;;
19919;SDS011;10122;50.074;19.920;2024-03-17T08:18:10;11.30;;;10.20;;
19919;SDS011;10122;50.074;19.920;2024-03-17T08:20:39;12.18;;;10.20;;
19919;SDS011;10122;50.074;19.920;2024-03-17T08:23:06;10.70;;;9.77;;
19919;SDS011;10122;50.074;19.920;2024-03-17T08:25:32;11.45;;;10.40;;
19919;SDS011;10122;50.074;19.920;2024-03-17T08:27:58;10.63;;;9.75;;
19919;SDS011;10122;50.074;19.920;2024-03-17T08:30:24;11.45;;;10.38;;
19919;SDS011;10122;50.074;19.920;2024-03-17T08:32:50;11.40;;;10.25;;
19919;SDS011;10122;50.074;19.920;2024-03-17T08:35:16;11.25;;;10.35;;
19919;SDS011;10122;50.074;19.920;2024-03-17T08:37:41;11.38;;;10.25;;
19919;SDS011;10122;50.074;19.920;2024-03-17T08:40:07;11.70;;;10.55;;
19919;SDS011;10122;50.074;19.920;2024-03-17T08:42:33;11.45;;;10.35;;
19919;SDS011;10122;50.074;19.920;2024-03-17T08:44:59;12.60;;;10.55;;
19919;SDS011;10122;50.074;19.920;2024-03-17T08:47:25;11.85;;;10.70;;
19919;SDS011;10122;50.074;19.920;2024-03-17T08:49:50;11.57;;;10.57;;
19919;SDS011;10122;50.074;19.920;2024-03-17T08:52:16;11.25;;;10.32;;
19919;SDS011;10122;50.074;19.920;2024-03-17T08:54:45;11.80;;;10.45;;
19919;SDS011;10122;50.074;19.920;2024-03-17T08:57:16;11.32;;;10.23;;
19919;SDS011;10122;50.074;19.920;2024-03-17T08:59:42;11.13;;;10.13;;
19919;SDS011;10122;50.074;19.920;2024-03-17T09:02:11;11.82;;;10.73;;
19919;SDS011;10122;50.074;19.920;2024-03-17T09:04:41;11.32;;;10.23;;
19919;SDS011;10122;50.074;19.920;2024-03-17T09:07:07;11.68;;;10.57;;
19919;SDS011;10122;50.074;19.920;2024-03-17T09:09:33;11.45;;;10.50;;
19919;SDS011;10122;50.074;19.920;2024-03-17T09:11:59;11.90;;;10.50;;
19919;SDS011;10122;50.074;19.920;2024-03-17T09:14:24;11.05;;;10.05;;
19919;SDS011;10122;50.074;19.920;2024-03-17T09:16:50;11.57;;;10.60;;
19919;SDS011;10122;50.074;19.920;2024-03-17T09:19:16;11.30;;;10.18;;
19919;SDS011;10122;50.074;19.920;2024-03-17T09:21:42;11.10;;;10.10;;
19919;SDS011;10122;50.074;19.920;2024-03-17T09:24:08;11.52;;;10.52;;
19919;SDS011;10122;50.074;19.920;2024-03-17T09:26:34;11.13;;;10.25;;
19919;SDS011;10122;50.074;19.920;2024-03-17T09:29:03;12.13;;;10.88;;
19919;SDS011;10122;50.074;19.920;2024-03-17T09:31:29;10.43;;;9.60;;
19919;SDS011;10122;50.074;19.920;2024-03-17T09:33:55;11.60;;;10.48;;
19919;SDS011;10122;50.074;19.920;2024-03-17T09:36:21;10.45;;;9.75;;
19919;SDS011;10122;50.074;19.920;2024-03-17T09:38:47;10.82;;;9.93;;
19919;SDS011;10122;50.074;19.920;2024-03-17T09:41:23;11.35;;;9.93;;
19919;SDS011;10122;50.074;19.920;2024-03-17T09:43:54;10.93;;;10.00;;
19919;SDS011;10122;50.074;19.920;2024-03-17T09:46:22;10.32;;;9.43;;
19919;SDS011;10122;50.074;19.920;2024-03-17T09:48:49;10.65;;;9.80;;
19919;SDS011;10122;50.074;19.920;2024-03-17T09:51:19;10.25;;;9.40;;
19919;SDS011;10122;50.074;19.920;2024-03-17T09:53:50;11.10;;;9.75;;
19919;SDS011;10122;50.074;19.920;2024-03-17T09:56:18;10.50;;;9.68;;
19919;SDS011;10122;50.074;19.920;2024-03-17T09:58:45;11.10;;;10.00;;
19919;SDS011;10122;50.074;19.920;2024-03-17T10:01:11;11.52;;;10.43;;
19919;SDS011;10122;50.074;19.920;2024-03-17T10:03:47;10.60;;;9.90;;
19919;SDS011;10122;50.074;19.920;2024-03-17T10:06:29;10.75;;;9.82;;
19919;SDS011;10122;50.074;19.920;2024-03-17T10:08:56;11.25;;;10.27;;
19919;SDS011;10122;50.074;19.920;2024-03-17T10:11:23;11.20;;;10.25;;
19919;SDS011;10122;50.074;19.920;2024-03-17T10:14:00;12.00;;;10.77;;
19919;SDS011;10122;50.074;19.920;2024-03-17T10:16:28;11.98;;;10.88;;
19919;SDS011;10122;50.074;19.920;2024-03-17T10:21:35;11.00;;;10.00;;
19919;SDS011;10122;50.074;19.920;2024-03-17T10:26:44;10.85;;;9.85;;
19919;SDS011;10122;50.074;19.920;2024-03-17T10:29:45;10.45;;;9.32;;
19919;SDS011;10122;50.074;19.920;2024-03-17T10:34:38;10.68;;;9.30;;
19919;SDS011;10122;50.074;19.920;2024-03-17T10:39:42;10.20;;;9.38;;
19919;SDS011;10122;50.074;19.920;2024-03-17T10:42:09;10.40;;;9.55;;
19919;SDS011;10122;50.074;19.920;2024-03-17T10:44:39;10.68;;;9.77;;
19919;SDS011;10122;50.074;19.920;2024-03-17T10:47:07;10.32;;;9.25;;
19919;SDS011;10122;50.074;19.920;2024-03-17T10:49:56;10.30;;;9.48;;
19919;SDS011;10122;50.074;19.920;2024-03-17T10:52:22;10.43;;;9.63;;
19919;SDS011;10122;50.074;19.920;2024-03-17T10:54:53;11.27;;;10.18;;
19919;SDS011;10122;50.074;19.920;2024-03-17T11:00:02;10.85;;;9.95;;
19919;SDS011;10122;50.074;19.920;2024-03-17T11:02:30;10.80;;;9.80;;
19919;SDS011;10122;50.074;19.920;2024-03-17T11:07:31;9.88;;;9.27;;
19919;SDS011;10122;50.074;19.920;2024-03-17T11:09:57;10.68;;;9.75;;
19919;SDS011;10122;50.074;19.920;2024-03-17T11:17:52;10.73;;;9.75;;
19919;SDS011;10122;50.074;19.920;2024-03-17T11:20:20;10.32;;;9.30;;
19919;SDS011;10122;50.074;19.920;2024-03-17T11:22:49;9.38;;;8.48;;
19919;SDS011;10122;50.074;19.920;2024-03-17T11:27:50;9.20;;;8.35;;
19919;SDS011;10122;50.074;19.920;2024-03-17T11:49:39;9.77;;;8.88;;
19919;SDS011;10122;50.074;19.920;2024-03-17T11:52:09;9.50;;;8.77;;
19919;SDS011;10122;50.074;19.920;2024-03-17T11:54:38;9.00;;;8.20;;
19919;SDS011;10122;50.074;19.920;2024-03-17T11:57:12;9.05;;;8.35;;
19919;SDS011;10122;50.074;19.920;2024-03-17T11:59:39;11.15;;;8.80;;
19919;SDS011;10122;50.074;19.920;2024-03-17T12:02:10;9.40;;;8.45;;
19919;SDS011;10122;50.074;19.920;2024-03-17T12:04:43;10.13;;;8.70;;
19919;SDS011;10122;50.074;19.920;2024-03-17T12:07:11;9.25;;;8.35;;
19919;SDS011;10122;50.074;19.920;2024-03-17T12:09:40;10.85;;;8.80;;
19919;SDS011;10122;50.074;19.920;2024-03-17T12:12:11;9.43;;;8.27;;
19919;SDS011;10122;50.074;19.920;2024-03-17T12:14:41;9.57;;;8.60;;
19919;SDS011;10122;50.074;19.920;2024-03-17T12:17:08;11.73;;;8.18;;
19919;SDS011;10122;50.074;19.920;2024-03-17T12:19:35;8.73;;;7.90;;
19919;SDS011;10122;50.074;19.920;2024-03-17T12:22:02;10.23;;;8.55;;
19919;SDS011;10122;50.074;19.920;2024-03-17T12:24:30;9.48;;;8.50;;
19919;SDS011;10122;50.074;19.920;2024-03-17T12:26:57;9.20;;;8.30;;
19919;SDS011;10122;50.074;19.920;2024-03-17T12:29:28;9.82;;;8.82;;
19919;SDS011;10122;50.074;19.920;2024-03-17T12:32:01;9.20;;;8.50;;
19919;SDS011;10122;50.074;19.920;2024-03-17T12:34:31;9.63;;;8.80;;
19919;SDS011;10122;50.074;19.920;2024-03-17T12:36:59;11.90;;;9.30;;
19919;SDS011;10122;50.074;19.920;2024-03-17T12:39:29;10.90;;;9.25;;
19919;SDS011;10122;50.074;19.920;2024-03-17T12:42:03;9.77;;;8.98;;
19919;SDS011;10122;50.074;19.920;2024-03-17T12:44:31;10.65;;;9.15;;
19919;SDS011;10122;50.074;19.920;2024-03-17T12:47:01;9.30;;;8.60;;
19919;SDS011;10122;50.074;19.920;2024-03-17T12:49:32;10.40;;;9.40;;
19919;SDS011;10122;50.074;19.920;2024-03-17T12:52:01;9.98;;;9.02;;
19919;SDS011;10122;50.074;19.920;2024-03-17T12:54:28;10.13;;;8.70;;
19919;SDS011;10122;50.074;19.920;2024-03-17T12:57:07;10.00;;;9.00;;
19919;SDS011;10122;50.074;19.920;2024-03-17T12:59:52;9.60;;;8.90;;
19919;SDS011;10122;50.074;19.920;2024-03-17T13:02:45;9.68;;;8.80;;
19919;SDS011;10122;50.074;19.920;2024-03-17T13:07:44;10.10;;;9.30;;
19919;SDS011;10122;50.074;19.920;2024-03-17T13:10:19;9.60;;;8.80;;
19919;SDS011;10122;50.074;19.920;2024-03-17T13:12:45;9.38;;;8.70;;
19919;SDS011;10122;50.074;19.920;2024-03-17T13:15:13;9.77;;;8.88;;
19919;SDS011;10122;50.074;19.920;2024-03-17T13:17:41;10.40;;;9.48;;
19919;SDS011;10122;50.074;19.920;2024-03-17T13:20:16;9.55;;;8.85;;
19919;SDS011;10122;50.074;19.920;2024-03-17T13:22:42;10.20;;;9.32;;
19919;SDS011;10122;50.074;19.920;2024-03-17T13:27:45;10.23;;;9.27;;
19919;SDS011;10122;50.074;19.920;2024-03-17T13:30:12;10.35;;;9.40;;
19919;SDS011;10122;50.074;19.920;2024-03-17T13:32:38;10.57;;;9.55;;
19919;SDS011;10122;50.074;19.920;2024-03-17T13:35:07;10.02;;;9.23;;
19919;SDS011;10122;50.074;19.920;2024-03-17T13:37:41;9.70;;;8.95;;
19919;SDS011;10122;50.074;19.920;2024-03-17T13:40:07;9.50;;;8.90;;
19919;SDS011;10122;50.074;19.920;2024-03-17T13:42:35;10.63;;;9.52;;
19919;SDS011;10122;50.074;19.920;2024-03-17T13:45:00;9.90;;;9.18;;
19919;SDS011;10122;50.074;19.920;2024-03-17T13:47:26;10.50;;;9.40;;
19919;SDS011;10122;50.074;19.920;2024-03-17T13:49:52;10.18;;;9.30;;
19919;SDS011;10122;50.074;19.920;2024-03-17T13:52:18;10.05;;;9.23;;
19919;SDS011;10122;50.074;19.920;2024-03-17T13:54:44;10.55;;;9.40;;
19919;SDS011;10122;50.074;19.920;2024-03-17T13:57:10;10.85;;;9.77;;
19919;SDS011;10122;50.074;19.920;2024-03-17T13:59:37;10.13;;;9.20;;
19919;SDS011;10122;50.074;19.920;2024-03-17T14:02:03;9.90;;;9.10;;
19919;SDS011;10122;50.074;19.920;2024-03-17T14:04:29;10.32;;;9.50;;
19919;SDS011;10122;50.074;19.920;2024-03-17T14:06:56;9.85;;;8.77;;
19919;SDS011;10122;50.074;19.920;2024-03-17T14:09:21;10.35;;;9.55;;
19919;SDS011;10122;50.074;19.920;2024-03-17T14:11:47;9.77;;;8.77;;
19919;SDS011;10122;50.074;19.920;2024-03-17T14:14:14;10.75;;;9.60;;
19919;SDS011;10122;50.074;19.920;2024-03-17T14:16:40;9.95;;;9.18;;
19919;SDS011;10122;50.074;19.920;2024-03-17T14:19:07;10.45;;;9.50;;
19919;SDS011;10122;50.074;19.920;2024-03-17T14:21:33;10.48;;;9.48;;
19919;SDS011;10122;50.074;19.920;2024-03-17T14:23:59;10.35;;;9.35;;
19919;SDS011;10122;50.074;19.920;2024-03-17T14:26:26;10.15;;;9.40;;
19919;SDS011;10122;50.074;19.920;2024-03-17T14:28:52;9.10;;;8.57;;
19919;SDS011;10122;50.074;19.920;2024-03-17T14:31:19;10.20;;;9.30;;
19919;SDS011;10122;50.074;19.920;2024-03-17T14:33:45;10.15;;;9.10;;
19919;SDS011;10122;50.074;19.920;2024-03-17T14:36:11;11.23;;;9.23;;
19919;SDS011;10122;50.074;19.920;2024-03-17T14:38:36;10.32;;;9.35;;
19919;SDS011;10122;50.074;19.920;2024-03-17T14:41:02;10.23;;;9.32;;
19919;SDS011;10122;50.074;19.920;2024-03-17T14:43:29;10.20;;;9.30;;
19919;SDS011;10122;50.074;19.920;2024-03-17T14:45:55;10.23;;;9.20;;
19919;SDS011;10122;50.074;19.920;2024-03-17T14:48:22;9.88;;;9.02;;
19919;SDS011;10122;50.074;19.920;2024-03-17T14:50:48;10.60;;;9.35;;
19919;SDS011;10122;50.074;19.920;2024-03-17T14:53:14;10.07;;;9.25;;
19919;SDS011;10122;50.074;19.920;2024-03-17T14:55:39;10.93;;;9.00;;
19919;SDS011;10122;50.074;19.920;2024-03-17T14:58:08;9.88;;;9.02;;
19919;SDS011;10122;50.074;19.920;2024-03-17T15:00:35;10.32;;;9.32;;
19919;SDS011;10122;50.074;19.920;2024-03-17T15:03:01;10.10;;;9.25;;
19919;SDS011;10122;50.074;19.920;2024-03-17T15:05:26;9.73;;;9.02;;
19919;SDS011;10122;50.074;19.920;2024-03-17T15:07:52;9.65;;;8.95;;
19919;SDS011;10122;50.074;19.920;2024-03-17T15:10:18;9.63;;;8.82;;
19919;SDS011;10122;50.074;19.920;2024-03-17T15:12:49;10.20;;;9.13;;
19919;SDS011;10122;50.074;19.920;2024-03-17T15:15:15;9.25;;;8.65;;